createdAt,value
2018-03-11T00:00:05.605Z,91.50
2018-03-11T00:02:33.215Z,91.60
2018-03-11T00:05:00.810Z,91.60
2018-03-11T00:07:29.185Z,91.60
2018-03-11T00:09:57.529Z,91.70
2018-03-11T00:12:25.097Z,91.70
2018-03-11T00:14:52.705Z,91.70
2018-03-11T00:17:20.298Z,91.60
2018-03-11T00:19:47.908Z,91.60
2018-03-11T00:22:16.285Z,91.80
2018-03-11T00:24:44.626Z,91.90
2018-03-11T00:27:12.246Z,91.80
2018-03-11T00:29:39.864Z,92.00
2018-03-11T00:32:07.431Z,91.80
2018-03-11T00:34:35.042Z,91.80
2018-03-11T00:37:02.631Z,91.90
2018-03-11T00:39:30.243Z,91.90
2018-03-11T00:41:57.866Z,91.90
2018-03-11T00:44:25.466Z,92.00
2018-03-11T00:46:53.946Z,92.00
2018-03-11T00:49:21.522Z,92.00
2018-03-11T00:51:49.086Z,91.90
2018-03-11T00:54:16.694Z,92.00
2018-03-11T00:56:44.327Z,92.20
2018-03-11T00:59:11.962Z,92.10
2018-03-11T01:01:41.851Z,92.00
2018-03-11T01:04:09.428Z,92.10
2018-03-11T01:06:37.771Z,92.00
2018-03-11T01:09:05.421Z,92.00
2018-03-11T01:11:32.992Z,91.90
2018-03-11T01:14:00.600Z,91.90
2018-03-11T01:16:28.189Z,92.40
2018-03-11T01:18:55.794Z,92.50
2018-03-11T01:21:23.421Z,92.70
2018-03-11T01:23:51.018Z,92.90
2018-03-11T01:26:18.618Z,92.50
2018-03-11T01:28:46.219Z,92.70
2018-03-11T01:31:13.828Z,92.40
2018-03-11T01:33:41.454Z,92.50
2018-03-11T01:36:09.836Z,92.30
2018-03-11T01:38:37.475Z,92.30
2018-03-11T01:41:05.047Z,92.20
2018-03-11T01:43:32.677Z,92.10
2018-03-11T01:46:00.258Z,92.30
2018-03-11T01:48:27.870Z,92.30
2018-03-11T01:50:55.510Z,92.30
2018-03-11T01:53:23.093Z,92.30
2018-03-11T01:55:51.438Z,92.30
2018-03-11T01:58:19.077Z,92.30
2018-03-11T02:00:46.651Z,92.30
2018-03-11T02:03:14.289Z,92.30
2018-03-11T02:05:41.899Z,92.30
2018-03-11T02:08:09.477Z,92.40
2018-03-11T02:10:37.870Z,92.60
2018-03-11T02:13:09.460Z,92.50
2018-03-11T02:15:40.210Z,92.50
2018-03-11T02:18:10.156Z,92.30
2018-03-11T02:20:40.031Z,92.50
2018-03-11T02:23:11.855Z,92.50
2018-03-11T02:25:41.895Z,92.60
2018-03-11T02:28:23.239Z,92.50
2018-03-11T02:30:51.630Z,92.50
2018-03-11T02:33:19.263Z,92.50
2018-03-11T02:35:46.850Z,92.60
2018-03-11T02:38:15.260Z,92.70
2018-03-11T02:40:42.844Z,92.70
2018-03-11T02:43:10.443Z,92.60
2018-03-11T02:45:38.826Z,92.60
2018-03-11T02:48:07.210Z,92.40
2018-03-11T02:50:35.535Z,92.20
2018-03-11T02:53:04.064Z,92.20
2018-03-11T02:55:31.683Z,92.10
2018-03-11T02:57:59.298Z,92.40
2018-03-11T03:00:27.649Z,92.50
2018-03-11T03:02:55.256Z,92.40
2018-03-11T03:05:22.824Z,92.50
2018-03-11T03:07:50.444Z,92.60
2018-03-11T03:10:18.790Z,92.60
2018-03-11T03:12:46.400Z,92.40
2018-03-11T03:15:13.986Z,92.60
2018-03-11T03:17:41.624Z,92.80
2018-03-11T03:20:09.974Z,92.50
2018-03-11T03:22:37.547Z,92.50
2018-03-11T03:25:05.160Z,92.40
2018-03-11T03:27:32.734Z,92.30
2018-03-11T03:30:00.358Z,92.10
2018-03-11T03:32:27.939Z,92.10
2018-03-11T03:34:55.542Z,92.00
2018-03-11T03:37:23.107Z,92.00
2018-03-11T03:39:50.737Z,92.00
2018-03-11T03:42:18.404Z,92.00
2018-03-11T03:44:46.011Z,92.00
2018-03-11T03:47:13.603Z,92.00
2018-03-11T03:49:41.210Z,92.20
2018-03-11T03:52:08.840Z,92.30
2018-03-11T03:54:36.482Z,92.20
2018-03-11T03:57:04.819Z,92.20
2018-03-11T03:59:32.430Z,92.20
2018-03-11T04:02:00.010Z,92.10
2018-03-11T04:04:27.635Z,92.20
2018-03-11T04:06:55.973Z,91.90
2018-03-11T04:09:23.599Z,91.80
2018-03-11T04:11:51.203Z,91.80
2018-03-11T04:14:18.811Z,91.80
2018-03-11T04:16:46.393Z,91.70
2018-03-11T04:19:14.015Z,91.60
2018-03-11T04:21:42.394Z,91.90
2018-03-11T04:24:10.746Z,91.60
2018-03-11T04:26:38.358Z,91.60
2018-03-11T04:29:05.937Z,91.70
2018-03-11T04:31:33.565Z,91.50
2018-03-11T04:34:01.913Z,91.80
2018-03-11T04:36:29.519Z,91.80
2018-03-11T04:38:57.127Z,91.90
2018-03-11T04:41:24.744Z,91.80
2018-03-11T04:43:52.365Z,91.80
2018-03-11T04:46:19.982Z,92.10
2018-03-11T04:48:47.652Z,91.90
2018-03-11T04:51:15.267Z,91.90
2018-03-11T04:53:43.618Z,91.90
2018-03-11T04:56:11.227Z,91.90
2018-03-11T04:58:38.811Z,91.80
2018-03-11T05:01:06.379Z,91.60
2018-03-11T05:03:34.007Z,91.90
2018-03-11T05:06:01.612Z,91.60
2018-03-11T05:08:29.212Z,91.90
2018-03-11T05:10:56.824Z,91.90
2018-03-11T05:13:24.400Z,91.90
2018-03-11T05:15:52.031Z,92.00
2018-03-11T05:18:19.616Z,92.00
2018-03-11T05:20:47.242Z,92.00
2018-03-11T05:23:14.856Z,92.00
2018-03-11T05:25:42.432Z,92.00
2018-03-11T05:28:10.020Z,91.90
2018-03-11T05:30:37.639Z,92.30
2018-03-11T05:33:05.238Z,92.10
2018-03-11T05:35:33.630Z,92.40
2018-03-11T05:38:01.970Z,92.30
2018-03-11T05:40:29.576Z,92.30
2018-03-11T05:42:57.152Z,92.40
2018-03-11T05:45:24.818Z,92.30
2018-03-11T05:47:52.396Z,92.30
2018-03-11T05:50:20.035Z,92.30
2018-03-11T05:52:47.605Z,92.30
2018-03-11T05:55:16.075Z,92.30
2018-03-11T05:57:43.684Z,92.20
2018-03-11T06:00:11.275Z,92.00
2018-03-11T06:02:38.892Z,92.00
2018-03-11T06:05:06.563Z,92.30
2018-03-11T06:07:34.154Z,92.10
2018-03-11T06:10:02.535Z,92.10
2018-03-11T06:12:30.878Z,92.40
2018-03-11T06:14:58.526Z,92.40
2018-03-11T06:17:26.094Z,92.20
2018-03-11T06:19:53.671Z,92.10
2018-03-11T06:22:21.282Z,92.20
2018-03-11T06:24:49.636Z,92.50
2018-03-11T06:27:18.040Z,92.60
2018-03-11T06:29:45.622Z,92.60
2018-03-11T06:32:13.207Z,92.50
2018-03-11T06:34:40.820Z,92.40
2018-03-11T06:37:08.386Z,92.50
2018-03-11T06:39:35.962Z,92.80
2018-03-11T06:42:03.579Z,92.90
2018-03-11T06:44:31.178Z,92.70
2018-03-11T06:46:59.342Z,92.80
2018-03-11T06:49:26.954Z,93.00
2018-03-11T06:51:54.567Z,92.90
2018-03-11T06:54:23.814Z,92.80
2018-03-11T06:56:51.411Z,92.80
2018-03-11T06:59:19.041Z,92.60
2018-03-11T07:01:46.602Z,92.60
2018-03-11T07:04:14.171Z,92.60
2018-03-11T07:06:41.787Z,92.40
2018-03-11T07:09:09.874Z,92.50
2018-03-11T07:11:37.427Z,92.40
2018-03-11T07:14:05.023Z,92.20
2018-03-11T07:16:32.643Z,91.80
2018-03-11T07:19:01.017Z,91.40
2018-03-11T07:21:28.596Z,91.40
2018-03-11T07:23:56.208Z,91.30
2018-03-11T07:26:24.556Z,90.80
2018-03-11T07:28:52.133Z,90.80
2018-03-11T07:31:19.747Z,91.20
2018-03-11T07:33:47.313Z,91.00
2018-03-11T07:36:14.915Z,91.00
2018-03-11T07:38:42.514Z,91.00
2018-03-11T07:41:10.129Z,90.70
2018-03-11T07:43:37.738Z,90.80
2018-03-11T07:46:05.305Z,90.90
2018-03-11T07:48:32.902Z,90.60
2018-03-11T07:51:00.476Z,90.30
2018-03-11T07:53:28.098Z,90.10
2018-03-11T07:55:55.682Z,90.30
2018-03-11T07:58:23.259Z,90.10
2018-03-11T08:00:50.872Z,88.80
2018-03-11T08:03:18.439Z,88.90
2018-03-11T08:05:46.049Z,89.10
2018-03-11T08:08:14.420Z,88.00
2018-03-11T08:10:42.013Z,88.30
2018-03-11T08:13:09.617Z,87.70
2018-03-11T08:15:38.023Z,88.00
2018-03-11T08:18:05.660Z,88.00
2018-03-11T08:20:33.323Z,85.10
2018-03-11T08:23:00.903Z,85.40
2018-03-11T08:25:28.530Z,85.90
2018-03-11T08:27:56.175Z,85.60
2018-03-11T08:30:24.510Z,83.80
2018-03-11T08:32:52.100Z,83.80
2018-03-11T08:35:19.747Z,84.30
2018-03-11T08:37:47.312Z,83.90
2018-03-11T08:40:15.708Z,82.50
2018-03-11T08:42:44.075Z,76.40
2018-03-11T08:45:11.654Z,76.40
2018-03-11T08:47:40.032Z,69.10
2018-03-11T08:50:08.364Z,67.60
2018-03-11T08:52:35.971Z,67.60
2018-03-11T08:55:04.324Z,62.70
2018-03-11T08:57:31.950Z,62.70
2018-03-11T08:59:59.539Z,63.20
2018-03-11T09:02:27.107Z,68.70
2018-03-11T09:04:54.714Z,70.20
2018-03-11T09:07:22.333Z,73.00
2018-03-11T09:09:49.916Z,74.30
2018-03-11T09:12:18.299Z,78.60
2018-03-11T09:14:46.680Z,78.80
2018-03-11T09:17:15.083Z,77.70
2018-03-11T09:19:42.686Z,77.80
2018-03-11T09:22:10.315Z,75.60
2018-03-11T09:24:37.892Z,73.40
2018-03-11T09:27:06.691Z,74.10
2018-03-11T09:29:35.271Z,76.80
2018-03-11T09:32:02.852Z,78.70
2018-03-11T09:34:30.462Z,80.10
2018-03-11T09:36:58.943Z,80.10
2018-03-11T09:39:27.183Z,79.00
2018-03-11T09:41:54.818Z,79.50
2018-03-11T09:44:22.381Z,81.00
2018-03-11T09:46:49.951Z,81.60
2018-03-11T09:49:17.880Z,81.20
2018-03-11T09:51:45.469Z,82.40
2018-03-11T09:54:13.053Z,81.30
2018-03-11T09:56:40.673Z,80.30
2018-03-11T09:59:08.285Z,79.10
2018-03-11T10:01:35.894Z,79.60
2018-03-11T10:04:03.490Z,79.60
2018-03-11T10:06:31.135Z,80.80
2018-03-11T10:08:58.818Z,79.50
2018-03-11T10:11:26.386Z,81.30
2018-03-11T10:13:54.035Z,80.90
2018-03-11T10:16:21.653Z,80.70
2018-03-11T10:18:49.217Z,79.80
2018-03-11T10:21:16.813Z,79.50
2018-03-11T10:23:44.386Z,77.40
2018-03-11T10:26:11.999Z,76.00
2018-03-11T10:28:40.046Z,76.60
2018-03-11T10:31:08.389Z,72.50
2018-03-11T10:33:35.986Z,72.50
2018-03-11T10:36:04.351Z,68.50
2018-03-11T10:38:31.962Z,68.50
2018-03-11T10:40:59.545Z,71.10
2018-03-11T10:43:27.165Z,69.70
2018-03-11T10:45:55.502Z,65.10
2018-03-11T10:48:23.072Z,65.10
2018-03-11T10:50:51.302Z,66.90
2018-03-11T10:53:18.924Z,67.80
2018-03-11T10:55:47.306Z,66.10
2018-03-11T10:58:14.882Z,66.10
2018-03-11T11:00:43.258Z,65.90
2018-03-11T11:03:16.583Z,66.90
2018-03-11T11:05:44.951Z,67.00
2018-03-11T11:08:13.256Z,67.10
2018-03-11T11:10:40.883Z,66.50
2018-03-11T11:13:09.214Z,67.90
2018-03-11T11:15:36.815Z,67.90
2018-03-11T11:18:05.190Z,69.10
2018-03-11T11:20:33.567Z,69.70
2018-03-11T11:23:02.020Z,70.40
2018-03-11T11:25:29.592Z,70.40
2018-03-11T11:27:57.192Z,71.00
2018-03-11T11:30:24.815Z,68.10
2018-03-11T11:32:52.550Z,67.30
2018-03-11T11:35:20.133Z,68.20
2018-03-11T11:37:47.751Z,69.90
2018-03-11T11:40:15.326Z,68.30
2018-03-11T11:42:43.078Z,67.30
2018-03-11T11:45:10.681Z,67.80
2018-03-11T11:47:38.264Z,67.10
2018-03-11T11:50:06.679Z,67.70
2018-03-11T11:52:34.280Z,67.70
2018-03-11T11:55:01.899Z,67.70
2018-03-11T11:57:29.505Z,68.90
2018-03-11T11:59:57.126Z,68.50
2018-03-11T12:02:25.444Z,67.60
2018-03-11T12:04:53.058Z,65.00
2018-03-11T12:07:20.703Z,60.60
2018-03-11T12:09:49.042Z,57.20
2018-03-11T12:12:16.675Z,57.10
2018-03-11T12:14:44.342Z,56.10
2018-03-11T12:17:12.000Z,55.50
2018-03-11T12:19:39.625Z,54.00
2018-03-11T12:22:07.969Z,54.10
2018-03-11T12:24:35.594Z,54.10
2018-03-11T12:27:03.942Z,55.60
2018-03-11T12:29:31.516Z,55.60
2018-03-11T12:31:59.899Z,56.30
2018-03-11T12:34:28.246Z,56.20
2018-03-11T12:36:56.638Z,57.70
2018-03-11T12:39:24.212Z,57.70
2018-03-11T12:41:52.566Z,58.90
2018-03-11T12:44:20.182Z,58.90
2018-03-11T12:46:47.965Z,59.90
2018-03-11T12:49:15.804Z,61.90
2018-03-11T12:51:43.382Z,60.60
2018-03-11T12:54:11.005Z,61.80
2018-03-11T12:56:38.627Z,59.20
2018-03-11T12:59:06.239Z,55.70
2018-03-11T13:01:34.578Z,42.50
2018-03-11T13:04:02.287Z,42.40
2018-03-11T13:06:30.666Z,36.80
2018-03-11T13:08:58.991Z,39.00
2018-03-11T13:11:26.655Z,39.00
2018-03-11T13:13:54.259Z,38.70
2018-03-11T13:16:22.592Z,37.60
2018-03-11T13:18:50.206Z,37.60
2018-03-11T13:21:19.389Z,41.50
2018-03-11T13:23:47.799Z,42.50
2018-03-11T13:26:15.485Z,41.80
2018-03-11T13:28:46.599Z,42.40
2018-03-11T13:31:14.979Z,45.10
2018-03-11T13:33:54.227Z,45.10
2018-03-11T13:36:21.851Z,45.00
2018-03-11T13:39:01.466Z,46.30
2018-03-11T13:41:29.540Z,45.40
2018-03-11T13:43:57.120Z,47.50
2018-03-11T13:46:36.542Z,48.20
2018-03-11T13:49:04.101Z,50.20
2018-03-11T13:51:43.587Z,52.00
2018-03-11T13:54:11.206Z,51.80
2018-03-11T13:56:39.248Z,52.90
2018-03-11T13:59:06.867Z,54.00
2018-03-11T14:01:34.447Z,55.30
2018-03-11T14:04:02.817Z,56.20
2018-03-11T14:06:31.144Z,54.90
2018-03-11T14:08:58.743Z,54.90
2018-03-11T14:11:26.303Z,56.90
2018-03-11T14:13:53.888Z,56.60
2018-03-11T14:16:22.262Z,56.70
2018-03-11T14:18:50.717Z,58.80
2018-03-11T14:21:18.256Z,58.80
2018-03-11T14:23:45.892Z,58.50
2018-03-11T14:26:13.510Z,58.70
2018-03-11T14:28:41.852Z,60.60
2018-03-11T14:31:09.457Z,60.50
2018-03-11T14:33:37.849Z,60.40
2018-03-11T14:36:05.487Z,60.30
2018-03-11T14:38:33.072Z,60.70
2018-03-11T14:41:01.477Z,63.60
2018-03-11T14:43:29.113Z,63.00
2018-03-11T14:45:57.499Z,63.30
2018-03-11T14:48:25.842Z,63.40
2018-03-11T14:50:54.129Z,63.20
2018-03-11T14:53:21.766Z,64.00
2018-03-11T14:55:49.350Z,64.10
2018-03-11T14:58:16.950Z,64.40
2018-03-11T15:00:44.566Z,65.50
2018-03-11T15:03:12.146Z,65.60
2018-03-11T15:05:39.762Z,65.70
2018-03-11T15:08:07.380Z,66.30
2018-03-11T15:10:35.756Z,69.90
2018-03-11T15:13:03.339Z,69.80
2018-03-11T15:15:30.999Z,69.00
2018-03-11T15:17:58.566Z,69.30
2018-03-11T15:20:26.171Z,70.50
2018-03-11T15:22:53.758Z,71.50
2018-03-11T15:25:21.387Z,70.90
2018-03-11T15:27:48.953Z,72.40
2018-03-11T15:30:16.570Z,73.70
2018-03-11T15:32:44.186Z,73.20
2018-03-11T15:35:11.858Z,73.00
2018-03-11T15:37:39.455Z,73.10
2018-03-11T15:40:07.038Z,74.90
2018-03-11T15:42:34.757Z,75.30
2018-03-11T15:45:02.352Z,75.20
2018-03-11T15:47:30.015Z,74.70
2018-03-11T15:49:57.692Z,76.60
2018-03-11T15:52:25.423Z,78.10
2018-03-11T15:54:53.765Z,78.80
2018-03-11T15:57:21.515Z,78.70
2018-03-11T15:59:49.134Z,78.10
2018-03-11T16:02:16.758Z,79.60
2018-03-11T16:04:44.371Z,79.10
2018-03-11T16:07:11.954Z,79.70
2018-03-11T16:09:39.559Z,78.70
2018-03-11T16:12:07.124Z,78.20
2018-03-11T16:14:35.515Z,76.00
2018-03-11T16:17:03.835Z,76.90
2018-03-11T16:19:31.463Z,76.90
2018-03-11T16:21:59.077Z,76.80
2018-03-11T16:24:28.633Z,77.00
2018-03-11T16:26:55.061Z,77.70
2018-03-11T16:29:23.405Z,77.80
2018-03-11T16:31:52.813Z,79.20
2018-03-11T16:34:20.439Z,79.20
2018-03-11T16:36:48.981Z,80.40
2018-03-11T16:39:17.318Z,80.20
2018-03-11T16:41:44.938Z,80.10
2018-03-11T16:44:12.542Z,80.90
2018-03-11T16:46:40.118Z,81.60
2018-03-11T16:49:07.742Z,81.30
2018-03-11T16:51:35.306Z,81.30
2018-03-11T16:54:02.920Z,81.10
2018-03-11T16:56:31.359Z,82.40
2018-03-11T16:58:58.974Z,82.40
2018-03-11T17:01:27.339Z,82.80
2018-03-11T17:03:54.929Z,82.70
2018-03-11T17:06:22.606Z,83.30
2018-03-11T17:08:50.935Z,82.60
2018-03-11T17:11:18.525Z,82.50
2018-03-11T17:13:46.910Z,83.50
2018-03-11T17:16:15.288Z,83.60
2018-03-11T17:18:43.668Z,84.60
2018-03-11T17:21:12.042Z,85.50
2018-03-11T17:23:41.285Z,85.90
2018-03-11T17:26:08.954Z,85.90
2018-03-11T17:28:36.537Z,86.00
2018-03-11T17:31:04.198Z,86.20
2018-03-11T17:33:31.809Z,86.30
2018-03-11T17:36:00.658Z,86.40
2018-03-11T17:38:29.366Z,86.20
2018-03-11T17:40:57.759Z,86.20
2018-03-11T17:43:25.519Z,86.20
2018-03-11T17:45:53.951Z,86.80
2018-03-11T17:48:22.405Z,86.70
2018-03-11T17:50:50.088Z,85.80
2018-03-11T17:53:17.756Z,86.40
2018-03-11T17:55:46.135Z,87.90
2018-03-11T17:58:13.746Z,87.90
2018-03-11T18:00:42.178Z,89.10
2018-03-11T18:03:09.848Z,89.10
2018-03-11T18:05:37.470Z,89.50
2018-03-11T18:08:05.070Z,88.70
2018-03-11T18:10:33.351Z,88.80
2018-03-11T18:13:00.987Z,89.10
2018-03-11T18:15:28.583Z,89.40
2018-03-11T18:17:56.182Z,90.00
2018-03-11T18:20:24.546Z,90.50
2018-03-11T18:22:52.945Z,90.70
2018-03-11T18:25:21.293Z,91.00
2018-03-11T18:27:48.923Z,91.00
2018-03-11T18:30:16.550Z,91.00
2018-03-11T18:32:44.202Z,90.80
2018-03-11T18:35:12.931Z,90.70
2018-03-11T18:37:41.298Z,90.60
2018-03-11T18:40:08.898Z,90.60
2018-03-11T18:42:36.471Z,90.80
2018-03-11T18:45:04.863Z,91.00
2018-03-11T18:47:33.310Z,90.80
2018-03-11T18:50:00.875Z,90.80
2018-03-11T18:52:28.506Z,91.00
2018-03-11T18:54:56.082Z,91.00
2018-03-11T18:57:23.678Z,91.20
2018-03-11T18:59:51.305Z,91.30
2018-03-11T19:02:18.880Z,91.70
2018-03-11T19:04:46.478Z,91.40
2018-03-11T19:07:15.292Z,91.70
2018-03-11T19:09:42.926Z,91.70
2018-03-11T19:12:11.321Z,91.80
2018-03-11T19:14:39.689Z,91.60
2018-03-11T19:17:08.013Z,91.60
2018-03-11T19:19:36.436Z,91.70
2018-03-11T19:22:04.039Z,91.70
2018-03-11T19:24:31.675Z,91.40
2018-03-11T19:27:00.012Z,90.90
2018-03-11T19:29:27.626Z,90.90
2018-03-11T19:31:56.858Z,90.50
2018-03-11T19:34:24.537Z,90.50
2018-03-11T19:36:52.094Z,90.40
2018-03-11T19:39:19.665Z,90.10
2018-03-11T19:41:48.077Z,90.30
2018-03-11T19:44:16.038Z,90.00
2018-03-11T19:46:43.655Z,89.80
2018-03-11T19:49:11.210Z,88.90
2018-03-11T19:51:38.834Z,88.80
2018-03-11T19:54:07.178Z,89.60
2018-03-11T19:56:34.797Z,89.60
2018-03-11T19:59:02.366Z,89.90
2018-03-11T20:01:29.970Z,90.10
2018-03-11T20:03:57.631Z,89.70
2018-03-11T20:06:25.226Z,89.50
2018-03-11T20:08:52.846Z,89.70
2018-03-11T20:11:20.473Z,90.00
2018-03-11T20:13:48.647Z,90.00
2018-03-11T20:16:16.214Z,90.00
2018-03-11T20:18:43.818Z,90.10
2018-03-11T20:21:11.400Z,89.30
2018-03-11T20:23:39.790Z,89.70
2018-03-11T20:26:08.690Z,89.90
2018-03-11T20:28:37.055Z,90.00
2018-03-11T20:31:04.639Z,90.00
2018-03-11T20:33:32.263Z,90.10
2018-03-11T20:35:59.860Z,89.70
2018-03-11T20:38:27.432Z,90.00
2018-03-11T20:40:55.083Z,90.10
2018-03-11T20:43:23.442Z,90.10
2018-03-11T20:45:51.773Z,90.20
2018-03-11T20:48:19.417Z,90.20
2018-03-11T20:50:46.990Z,90.20
2018-03-11T20:53:14.722Z,90.30
2018-03-11T20:55:43.054Z,90.00
2018-03-11T20:58:10.622Z,90.00
2018-03-11T21:00:38.233Z,90.00
2018-03-11T21:03:08.113Z,90.20
2018-03-11T21:05:36.470Z,90.60
2018-03-11T21:08:04.038Z,90.60
2018-03-11T21:10:31.644Z,90.50
2018-03-11T21:12:59.234Z,90.50
2018-03-11T21:15:26.891Z,90.60
2018-03-11T21:17:54.473Z,90.80
2018-03-11T21:20:22.062Z,90.80
2018-03-11T21:22:49.704Z,90.60
2018-03-11T21:25:18.100Z,90.50
2018-03-11T21:27:45.673Z,90.50
2018-03-11T21:30:14.923Z,90.30
2018-03-11T21:32:42.531Z,90.30
2018-03-11T21:35:10.096Z,90.40
2018-03-11T21:37:38.434Z,90.30
2018-03-11T21:40:06.035Z,90.30
2018-03-11T21:42:34.368Z,90.70
2018-03-11T21:45:01.954Z,90.70
2018-03-11T21:47:29.573Z,90.80
2018-03-11T21:49:57.174Z,90.80
2018-03-11T21:52:24.805Z,90.90
2018-03-11T21:54:52.367Z,91.00
2018-03-11T21:57:20.084Z,90.90
2018-03-11T21:59:48.443Z,90.20
2018-03-11T22:02:16.046Z,90.20
2018-03-11T22:04:43.663Z,90.60
2018-03-11T22:07:11.281Z,90.50
2018-03-11T22:09:38.890Z,90.30
2018-03-11T22:12:06.494Z,90.10
2018-03-11T22:14:34.054Z,90.10
2018-03-11T22:17:01.678Z,90.10
2018-03-11T22:19:29.251Z,90.30
2018-03-11T22:21:57.630Z,90.60
2018-03-11T22:24:25.252Z,90.60
2018-03-11T22:26:52.845Z,90.60
2018-03-11T22:29:20.455Z,90.70
2018-03-11T22:31:48.050Z,90.70
2018-03-11T22:34:15.615Z,90.70
2018-03-11T22:36:43.230Z,90.60
2018-03-11T22:39:10.862Z,90.60
2018-03-11T22:41:38.434Z,90.80
2018-03-11T22:44:06.867Z,91.00
2018-03-11T22:46:34.477Z,90.90
2018-03-11T22:49:02.804Z,91.10
2018-03-11T22:51:31.233Z,91.00
2018-03-11T22:53:58.778Z,91.00
2018-03-11T22:56:26.378Z,91.00
2018-03-11T22:58:53.970Z,91.40
2018-03-11T23:01:21.561Z,91.50
2018-03-11T23:03:49.158Z,91.40
2018-03-11T23:06:17.538Z,91.60
2018-03-11T23:08:45.110Z,91.60
2018-03-11T23:11:12.742Z,91.50
2018-03-11T23:13:41.117Z,91.40
2018-03-11T23:16:08.670Z,91.40
2018-03-11T23:18:48.107Z,91.40
2018-03-11T23:21:15.675Z,91.60
2018-03-11T23:23:43.272Z,91.70
2018-03-11T23:26:10.847Z,91.70
2018-03-11T23:28:38.454Z,91.80
2018-03-11T23:31:06.020Z,91.90
2018-03-11T23:33:33.632Z,91.90
2018-03-11T23:36:01.235Z,91.90
2018-03-11T23:38:28.863Z,91.80
2018-03-11T23:40:56.426Z,91.80
2018-03-11T23:43:24.012Z,91.70
2018-03-11T23:45:51.626Z,91.70
2018-03-11T23:48:19.244Z,91.80
2018-03-11T23:50:46.843Z,91.80
2018-03-11T23:53:14.429Z,91.90
2018-03-11T23:55:42.060Z,92.10
2018-03-11T23:58:10.391Z,91.80
